createdAt,value
2022-09-26T00:01:59.465Z,10.37
2022-09-26T00:04:32.758Z,11.60
2022-09-26T00:07:01.867Z,10.00
2022-09-26T00:09:30.528Z,10.90
2022-09-26T00:11:59.195Z,11.00
2022-09-26T00:14:30.578Z,11.27
2022-09-26T00:16:59.549Z,11.60
2022-09-26T00:19:28.217Z,11.23
2022-09-26T00:21:56.885Z,12.40
2022-09-26T00:24:25.465Z,12.23
2022-09-26T00:26:54.150Z,11.20
2022-09-26T00:29:22.694Z,13.10
2022-09-26T00:31:52.697Z,12.03
2022-09-26T00:34:21.671Z,12.47
2022-09-26T00:36:50.558Z,12.13
2022-09-26T00:39:19.303Z,11.73
2022-09-26T00:41:47.995Z,11.47
2022-09-26T00:44:48.798Z,12.30
2022-09-26T00:47:41.735Z,13.00
2022-09-26T00:50:19.656Z,11.67
2022-09-26T00:52:53.041Z,11.77
2022-09-26T00:55:25.073Z,13.53
2022-09-26T00:57:58.179Z,12.30
2022-09-26T01:00:27.328Z,12.77
2022-09-26T01:02:58.027Z,12.03
2022-09-26T01:05:27.120Z,13.10
2022-09-26T01:07:57.373Z,12.83
2022-09-26T01:10:26.989Z,12.47
2022-09-26T01:12:56.568Z,12.57
2022-09-26T01:15:25.551Z,12.37
2022-09-26T01:17:54.204Z,12.07
2022-09-26T01:20:39.818Z,12.40
2022-09-26T01:23:43.387Z,12.70
2022-09-26T01:26:35.870Z,11.73
2022-09-26T01:29:40.959Z,11.87
2022-09-26T01:32:37.949Z,12.97
2022-09-26T01:35:14.134Z,13.37
2022-09-26T01:37:59.462Z,11.77
2022-09-26T01:40:33.844Z,11.87
2022-09-26T01:43:12.829Z,11.93
2022-09-26T01:45:47.209Z,12.33
2022-09-26T01:48:22.158Z,13.07
2022-09-26T01:50:54.970Z,12.37
2022-09-26T01:53:27.017Z,11.90
2022-09-26T01:56:00.771Z,12.50
2022-09-26T01:58:35.080Z,12.20
2022-09-26T02:01:09.241Z,11.37
2022-09-26T02:03:44.321Z,12.13
2022-09-26T02:06:17.238Z,11.53
2022-09-26T02:08:49.919Z,11.57
2022-09-26T02:11:19.849Z,11.73
2022-09-26T02:13:52.273Z,12.67
2022-09-26T02:16:26.559Z,11.00
2022-09-26T02:19:00.841Z,11.63
2022-09-26T02:21:29.943Z,12.77
2022-09-26T02:23:58.628Z,11.33
2022-09-26T02:26:27.492Z,13.23
2022-09-26T02:28:57.499Z,13.93
2022-09-26T02:31:28.798Z,14.13
2022-09-26T02:33:58.992Z,13.13
2022-09-26T02:36:27.536Z,13.40
2022-09-26T02:38:56.123Z,12.93
2022-09-26T02:41:35.680Z,13.83
2022-09-26T02:44:18.759Z,11.67
2022-09-26T02:47:01.343Z,12.87
2022-09-26T02:49:50.895Z,13.23
2022-09-26T02:52:35.364Z,14.27
2022-09-26T02:55:13.708Z,12.90
2022-09-26T02:57:53.318Z,12.83
2022-09-26T03:00:24.910Z,15.27
2022-09-26T03:03:03.201Z,13.50
2022-09-26T03:05:36.288Z,12.93
2022-09-26T03:08:08.599Z,14.60
2022-09-26T03:10:39.340Z,12.37
2022-09-26T03:13:12.283Z,14.57
2022-09-26T03:15:45.134Z,13.13
2022-09-26T03:18:18.479Z,14.17
2022-09-26T03:20:48.771Z,13.97
2022-09-26T03:23:18.885Z,14.03
2022-09-26T03:25:49.441Z,13.03
2022-09-26T03:28:18.093Z,13.70
2022-09-26T03:30:46.691Z,14.50
2022-09-26T03:33:15.274Z,14.07
2022-09-26T03:35:43.945Z,13.73
2022-09-26T03:38:14.638Z,14.23
2022-09-26T03:40:44.054Z,13.03
2022-09-26T03:43:12.988Z,14.03
2022-09-26T03:45:41.599Z,12.50
2022-09-26T03:48:10.441Z,13.93
2022-09-26T03:50:39.261Z,13.10
2022-09-26T03:53:07.867Z,12.07
2022-09-26T03:55:37.939Z,12.97
2022-09-26T03:58:06.731Z,14.57
2022-09-26T04:00:35.401Z,13.20
2022-09-26T04:03:04.769Z,13.30
2022-09-26T04:05:33.315Z,14.57
2022-09-26T04:08:03.119Z,13.13
2022-09-26T04:10:31.713Z,13.50
2022-09-26T04:13:01.697Z,13.67
2022-09-26T04:15:30.983Z,12.53
2022-09-26T04:17:59.560Z,12.93
2022-09-26T04:20:28.512Z,11.73
2022-09-26T04:22:57.102Z,13.83
2022-09-26T04:25:25.644Z,12.97
2022-09-26T04:27:54.238Z,12.67
2022-09-26T04:30:24.134Z,15.33
2022-09-26T04:32:52.748Z,13.03
2022-09-26T04:35:21.359Z,12.20
2022-09-26T04:37:51.943Z,13.30
2022-09-26T04:40:20.546Z,13.20
2022-09-26T04:42:49.248Z,11.93
2022-09-26T04:45:18.424Z,14.10
2022-09-26T04:47:48.389Z,12.27
2022-09-26T04:50:17.513Z,14.90
2022-09-26T04:52:46.277Z,14.23
2022-09-26T04:55:14.924Z,13.60
2022-09-26T04:57:43.461Z,12.07
2022-09-26T05:00:13.378Z,12.87
2022-09-26T05:02:43.768Z,11.27
2022-09-26T05:05:13.839Z,11.93
2022-09-26T05:07:42.432Z,10.93
2022-09-26T05:10:12.214Z,12.03
2022-09-26T05:12:41.099Z,11.67
2022-09-26T05:15:11.270Z,12.50
2022-09-26T05:17:39.920Z,10.43
2022-09-26T05:20:10.040Z,10.70
2022-09-26T05:22:40.029Z,11.80
2022-09-26T05:25:26.843Z,10.87
2022-09-26T05:27:55.547Z,12.10
2022-09-26T05:30:25.910Z,12.07
2022-09-26T05:32:54.487Z,11.70
2022-09-26T05:35:23.626Z,11.90
2022-09-26T05:38:01.001Z,11.57
2022-09-26T05:40:46.870Z,14.00
2022-09-26T05:43:15.910Z,13.07
2022-09-26T05:45:49.327Z,12.17
2022-09-26T05:48:19.141Z,12.20
2022-09-26T05:50:48.721Z,10.87
2022-09-26T05:53:19.450Z,10.83
2022-09-26T05:55:50.825Z,10.60
2022-09-26T05:58:20.142Z,10.83
2022-09-26T06:00:48.959Z,11.37
2022-09-26T06:03:17.912Z,10.83
2022-09-26T06:05:46.669Z,10.90
2022-09-26T06:08:16.062Z,10.60
2022-09-26T06:10:46.047Z,11.93
2022-09-26T06:13:15.431Z,10.73
2022-09-26T06:15:44.326Z,12.13
2022-09-26T06:18:12.912Z,10.53
2022-09-26T06:20:41.858Z,11.13
2022-09-26T06:23:10.675Z,10.23
2022-09-26T06:25:39.413Z,11.73
2022-09-26T06:28:09.705Z,10.13
2022-09-26T06:30:38.530Z,10.53
2022-09-26T06:33:07.226Z,10.10
2022-09-26T06:35:35.928Z,10.47
2022-09-26T06:38:05.839Z,10.93
2022-09-26T06:40:34.739Z,9.63
2022-09-26T06:43:03.771Z,10.23
2022-09-26T06:45:34.773Z,11.47
2022-09-26T06:48:03.853Z,9.57
2022-09-26T06:50:32.382Z,11.37
2022-09-26T06:53:12.919Z,11.80
2022-09-26T06:55:41.443Z,9.43
2022-09-26T06:58:10.095Z,10.43
2022-09-26T07:00:40.932Z,10.00
2022-09-26T07:03:09.695Z,10.47
2022-09-26T07:05:38.329Z,9.87
2022-09-26T07:08:07.036Z,10.27
2022-09-26T07:10:36.207Z,10.03
2022-09-26T07:13:07.132Z,11.50
2022-09-26T07:15:37.562Z,10.50
2022-09-26T07:18:08.158Z,10.77
2022-09-26T07:20:40.077Z,10.40
2022-09-26T07:23:11.915Z,10.47
2022-09-26T07:25:40.730Z,10.87
2022-09-26T07:28:11.019Z,11.60
2022-09-26T07:30:42.373Z,10.10
2022-09-26T07:33:23.629Z,10.30
2022-09-26T07:35:52.393Z,11.40
2022-09-26T07:38:21.008Z,12.17
2022-09-26T07:40:53.877Z,10.20
2022-09-26T07:43:37.737Z,12.57
2022-09-26T07:46:28.864Z,9.50
2022-09-26T07:49:16.476Z,10.77
2022-09-26T07:51:45.846Z,12.30
2022-09-26T07:54:14.530Z,9.90
2022-09-26T07:56:43.635Z,9.87
2022-09-26T07:59:12.673Z,10.50
2022-09-26T08:01:41.508Z,10.20
2022-09-26T08:04:13.399Z,11.87
2022-09-26T08:06:42.052Z,10.67
2022-09-26T08:09:10.691Z,10.30
2022-09-26T08:11:41.891Z,10.57
2022-09-26T08:14:10.991Z,10.07
2022-09-26T08:16:41.753Z,10.63
2022-09-26T08:19:17.606Z,11.03
2022-09-26T08:21:46.279Z,10.70
2022-09-26T08:24:15.003Z,12.47
2022-09-26T08:26:44.767Z,11.37
2022-09-26T08:29:13.991Z,12.17
2022-09-26T08:31:42.836Z,10.50
2022-09-26T08:34:11.482Z,10.77
2022-09-26T08:36:41.655Z,10.33
2022-09-26T08:39:10.938Z,10.70
2022-09-26T08:42:03.544Z,10.97
2022-09-26T08:44:52.885Z,11.67
2022-09-26T08:47:35.352Z,13.00
2022-09-26T08:50:15.986Z,12.30
2022-09-26T08:52:51.268Z,12.93
2022-09-26T08:55:23.945Z,12.97
2022-09-26T08:57:57.426Z,11.40
2022-09-26T09:00:27.982Z,11.77
2022-09-26T09:03:05.744Z,12.27
2022-09-26T09:05:39.126Z,12.10
2022-09-26T09:08:14.506Z,11.43
2022-09-26T09:10:47.637Z,11.50
2022-09-26T09:13:42.494Z,11.53
2022-09-26T09:16:23.189Z,11.43
2022-09-26T09:18:56.841Z,12.10
2022-09-26T09:21:41.482Z,12.60
2022-09-26T09:24:20.273Z,11.97
2022-09-26T09:30:16.537Z,13.53
2022-09-26T09:32:52.778Z,12.17
2022-09-26T09:35:29.973Z,12.77
2022-09-26T09:37:59.062Z,12.73
2022-09-26T09:40:34.661Z,13.53
2022-09-26T09:43:07.067Z,12.73
2022-09-26T09:45:41.663Z,15.00
2022-09-26T09:48:13.258Z,12.27
2022-09-26T09:50:51.589Z,12.10
2022-09-26T09:53:31.212Z,12.30
2022-09-26T09:56:11.660Z,12.83
2022-09-26T09:58:55.480Z,12.83
2022-09-26T10:01:28.081Z,13.67
2022-09-26T10:04:06.738Z,14.30
2022-09-26T10:06:45.891Z,11.90
2022-09-26T10:09:39.044Z,14.10
2022-09-26T10:12:17.160Z,11.93
2022-09-26T10:14:50.485Z,14.27
2022-09-26T10:17:23.363Z,13.53
2022-09-26T10:19:52.743Z,14.50
2022-09-26T10:22:34.195Z,14.20
2022-09-26T10:25:06.743Z,13.20
2022-09-26T10:27:39.042Z,13.03
2022-09-26T10:30:26.191Z,13.37
2022-09-26T10:32:57.265Z,12.63
2022-09-26T10:35:29.572Z,13.70
2022-09-26T10:38:02.767Z,12.47
2022-09-26T10:40:48.382Z,11.37
2022-09-26T10:43:23.941Z,13.13
2022-09-26T10:45:55.645Z,12.67
2022-09-26T10:48:35.066Z,15.57
2022-09-26T10:51:04.337Z,12.33
2022-09-26T10:53:38.326Z,13.17
2022-09-26T10:56:11.923Z,12.60
2022-09-26T10:58:46.838Z,12.40
2022-09-26T11:01:23.340Z,13.07
2022-09-26T11:03:52.502Z,11.77
2022-09-26T11:06:34.278Z,13.20
2022-09-26T11:09:05.772Z,11.63
2022-09-26T11:11:39.475Z,14.97
2022-09-26T11:14:10.599Z,12.90
2022-09-26T11:16:51.555Z,13.50
2022-09-26T11:19:34.331Z,12.20
2022-09-26T11:22:09.778Z,12.10
2022-09-26T11:24:46.137Z,11.67
2022-09-26T11:27:27.272Z,11.73
2022-09-26T11:30:03.132Z,10.43
2022-09-26T11:32:40.989Z,12.63
2022-09-26T11:35:16.083Z,11.37
2022-09-26T11:38:11.538Z,11.57
2022-09-26T11:40:59.975Z,13.33
2022-09-26T11:43:52.638Z,12.13
2022-09-26T11:46:39.289Z,12.93
2022-09-26T11:49:39.986Z,11.47
2022-09-26T11:52:29.700Z,11.10
2022-09-26T11:55:08.405Z,11.53
2022-09-26T11:57:46.409Z,11.77
2022-09-26T12:00:24.701Z,10.73
2022-09-26T12:03:20.927Z,11.63
2022-09-26T12:05:54.701Z,12.27
2022-09-26T12:08:42.098Z,12.03
2022-09-26T12:11:21.520Z,11.00
2022-09-26T12:13:55.670Z,10.53
2022-09-26T12:16:35.839Z,11.53
2022-09-26T12:19:16.652Z,11.60
2022-09-26T12:22:11.959Z,12.13
2022-09-26T12:24:48.957Z,10.60
2022-09-26T12:27:25.719Z,11.33
2022-09-26T12:30:04.375Z,10.73
2022-09-26T12:32:51.278Z,11.83
2022-09-26T12:35:47.280Z,11.17
2022-09-26T12:38:37.871Z,11.00
2022-09-26T12:41:17.878Z,11.93
2022-09-26T12:44:18.842Z,12.80
2022-09-26T12:47:11.003Z,10.63
2022-09-26T12:50:04.686Z,11.37
2022-09-26T12:53:05.511Z,11.67
2022-09-26T12:55:41.177Z,11.53
2022-09-26T12:58:30.405Z,11.67
2022-09-26T13:01:09.321Z,11.73
2022-09-26T13:03:56.585Z,11.90
2022-09-26T13:07:18.323Z,11.87
2022-09-26T13:10:20.013Z,11.50
2022-09-26T13:13:11.938Z,10.10
2022-09-26T13:15:48.885Z,12.77
2022-09-26T13:18:26.342Z,11.03
2022-09-26T13:21:00.061Z,11.63
2022-09-26T13:23:32.695Z,11.53
2022-09-26T13:26:08.933Z,13.50
2022-09-26T13:29:06.415Z,12.17
2022-09-26T13:31:40.461Z,12.90
2022-09-26T13:34:15.793Z,11.17
2022-09-26T13:36:45.676Z,12.70
2022-09-26T13:39:24.011Z,11.53
2022-09-26T13:42:01.979Z,11.73
2022-09-26T13:44:46.907Z,11.83
2022-09-26T13:47:27.116Z,10.90
2022-09-26T13:50:03.166Z,12.63
2022-09-26T13:52:44.223Z,10.77
2022-09-26T13:55:16.394Z,10.20
2022-09-26T13:57:51.515Z,13.30
2022-09-26T14:00:41.038Z,10.93
2022-09-26T14:03:36.473Z,10.37
2022-09-26T14:06:27.292Z,10.10
2022-09-26T14:09:25.072Z,10.60
2022-09-26T14:12:33.134Z,11.77
2022-09-26T14:15:25.358Z,11.53
2022-09-26T14:18:17.186Z,11.23
2022-09-26T14:20:59.930Z,10.97
2022-09-26T14:23:45.611Z,10.83
2022-09-26T14:26:19.170Z,11.17
2022-09-26T14:28:51.853Z,11.10
2022-09-26T14:31:40.717Z,11.57
2022-09-26T14:34:23.368Z,9.23
2022-09-26T14:36:54.168Z,10.93
2022-09-26T14:39:40.599Z,11.80
2022-09-26T14:42:24.076Z,10.00
2022-09-26T14:44:58.652Z,11.00
2022-09-26T14:47:31.659Z,11.50
2022-09-26T14:50:05.619Z,10.27
2022-09-26T14:52:36.177Z,12.07
2022-09-26T14:55:10.761Z,10.33
2022-09-26T14:58:10.565Z,10.60
2022-09-26T15:00:42.747Z,11.00
2022-09-26T15:03:20.103Z,9.57
2022-09-26T15:05:49.868Z,10.37
2022-09-26T15:08:27.352Z,12.23
2022-09-26T15:10:58.559Z,11.13
2022-09-26T15:13:34.027Z,11.97
2022-09-26T15:16:18.934Z,10.97
2022-09-26T15:18:52.343Z,12.70
2022-09-26T15:21:27.535Z,18.97
2022-09-26T15:23:57.581Z,12.20
2022-09-26T15:26:28.973Z,11.90
2022-09-26T15:28:59.374Z,14.27
2022-09-26T15:31:30.712Z,11.30
2022-09-26T15:34:04.455Z,12.67
2022-09-26T15:36:35.621Z,10.70
2022-09-26T15:39:25.858Z,11.67
2022-09-26T15:42:11.949Z,11.57
2022-09-26T15:44:48.203Z,11.53
2022-09-26T15:47:37.058Z,11.37
2022-09-26T15:50:13.123Z,12.10
2022-09-26T15:52:48.216Z,12.33
2022-09-26T15:55:20.592Z,13.40
2022-09-26T15:57:50.888Z,11.80
2022-09-26T16:00:20.013Z,12.47
2022-09-26T16:02:49.219Z,12.77
2022-09-26T16:05:22.341Z,12.13
2022-09-26T16:07:53.096Z,11.73
2022-09-26T16:10:25.212Z,12.60
2022-09-26T16:12:54.226Z,13.17
2022-09-26T16:15:30.425Z,11.67
2022-09-26T16:18:00.202Z,11.57
2022-09-26T16:20:32.072Z,14.03
2022-09-26T16:23:04.789Z,11.87
2022-09-26T16:25:36.391Z,11.77
2022-09-26T16:28:42.696Z,13.03
2022-09-26T16:31:24.454Z,11.43
2022-09-26T16:33:55.165Z,11.37
2022-09-26T16:36:27.653Z,12.47
2022-09-26T16:38:59.935Z,11.43
2022-09-26T16:41:59.948Z,13.00
2022-09-26T16:44:33.830Z,14.43
2022-09-26T16:47:06.574Z,13.93
2022-09-26T16:49:46.108Z,12.30
2022-09-26T16:52:34.759Z,13.40
2022-09-26T16:55:07.022Z,11.50
2022-09-26T16:57:37.877Z,12.60
2022-09-26T17:00:30.006Z,11.63
2022-09-26T17:02:58.789Z,12.33
2022-09-26T17:05:27.440Z,12.37
2022-09-26T17:07:57.503Z,12.80
2022-09-26T17:10:27.371Z,12.13
2022-09-26T17:12:56.396Z,13.17
2022-09-26T17:15:30.880Z,12.67
2022-09-26T17:18:01.006Z,12.33
2022-09-26T17:20:30.051Z,12.77
2022-09-26T17:23:08.016Z,13.00
2022-09-26T17:25:48.247Z,12.87
2022-09-26T17:28:20.513Z,13.33
2022-09-26T17:30:52.237Z,12.87
2022-09-26T17:33:21.086Z,12.73
2022-09-26T17:35:49.976Z,13.43
2022-09-26T17:38:20.064Z,13.33
2022-09-26T17:40:48.866Z,12.23
2022-09-26T17:43:17.787Z,14.13
2022-09-26T17:45:48.883Z,13.63
2022-09-26T17:48:25.226Z,13.57
2022-09-26T17:50:55.581Z,13.03
2022-09-26T17:53:32.742Z,12.83
2022-09-26T17:56:03.110Z,13.23
2022-09-26T17:58:32.402Z,13.80
2022-09-26T18:01:01.728Z,14.43
2022-09-26T18:03:33.767Z,14.87
2022-09-26T18:06:03.217Z,13.73
2022-09-26T18:08:37.266Z,14.67
2022-09-26T18:11:09.555Z,13.87
2022-09-26T18:13:44.532Z,14.30
2022-09-26T18:16:13.783Z,13.83
2022-09-26T18:18:42.405Z,15.07
2022-09-26T18:21:16.222Z,13.57
2022-09-26T18:23:51.707Z,16.73
2022-09-26T18:26:28.691Z,15.27
2022-09-26T18:28:59.006Z,15.73
2022-09-26T18:31:32.302Z,15.97
2022-09-26T18:34:03.034Z,14.50
2022-09-26T18:36:34.002Z,13.60
2022-09-26T18:39:04.022Z,15.63
2022-09-26T18:41:33.015Z,14.57
2022-09-26T18:44:02.825Z,14.27
2022-09-26T18:46:34.027Z,14.67
2022-09-26T18:49:06.338Z,15.73
2022-09-26T18:51:35.139Z,14.87
2022-09-26T18:54:10.724Z,14.93
2022-09-26T18:56:57.638Z,16.70
2022-09-26T18:59:29.022Z,16.67
2022-09-26T19:01:59.679Z,15.70
2022-09-26T19:04:30.533Z,16.40
2022-09-26T19:07:02.076Z,17.27
2022-09-26T19:09:34.885Z,16.47
2022-09-26T19:12:04.575Z,15.23
2022-09-26T19:14:33.479Z,14.90
2022-09-26T19:17:03.869Z,17.47
2022-09-26T19:19:32.632Z,14.83
2022-09-26T19:22:08.237Z,14.93
2022-09-26T19:24:41.867Z,15.33
2022-09-26T19:27:15.861Z,14.13
2022-09-26T19:29:49.270Z,19.43
2022-09-26T19:32:21.462Z,14.73
2022-09-26T19:34:53.981Z,15.60
2022-09-26T19:37:22.799Z,17.33
2022-09-26T19:39:52.706Z,16.57
2022-09-26T19:42:21.377Z,16.17
2022-09-26T19:44:51.299Z,13.93
2022-09-26T19:47:22.610Z,15.17
2022-09-26T19:49:53.345Z,14.50
2022-09-26T19:52:22.974Z,14.57
2022-09-26T19:54:52.966Z,14.13
2022-09-26T19:57:23.245Z,13.77
2022-09-26T19:59:52.162Z,12.97
2022-09-26T20:02:24.238Z,12.73
2022-09-26T20:04:53.306Z,13.37
2022-09-26T20:07:22.197Z,13.57
2022-09-26T20:09:53.078Z,13.13
2022-09-26T20:12:21.688Z,11.57
2022-09-26T20:14:50.282Z,12.33
2022-09-26T20:17:27.182Z,13.33
2022-09-26T20:19:59.085Z,11.53
2022-09-26T20:22:28.083Z,11.57
2022-09-26T20:24:58.161Z,12.30
2022-09-26T20:27:29.202Z,11.40
2022-09-26T20:30:15.411Z,11.37
2022-09-26T20:32:44.361Z,11.03
2022-09-26T20:35:15.635Z,12.23
2022-09-26T20:37:45.573Z,11.30
2022-09-26T20:40:18.833Z,9.60
2022-09-26T20:42:51.712Z,12.00
2022-09-26T20:45:25.575Z,9.47
2022-09-26T20:47:54.453Z,10.57
2022-09-26T20:50:23.183Z,10.77
2022-09-26T20:52:51.795Z,10.00
2022-09-26T20:55:21.796Z,10.07
2022-09-26T20:57:50.815Z,9.33
2022-09-26T21:00:21.883Z,9.50
2022-09-26T21:02:54.351Z,8.97
2022-09-26T21:05:25.218Z,8.87
2022-09-26T21:07:55.145Z,9.90
2022-09-26T21:10:28.752Z,8.70
2022-09-26T21:12:57.818Z,8.63
2022-09-26T21:15:28.169Z,9.60
2022-09-26T21:17:57.199Z,9.00
2022-09-26T21:20:28.115Z,8.77
2022-09-26T21:22:57.993Z,9.47
2022-09-26T21:25:32.043Z,12.50
2022-09-26T21:28:03.182Z,7.93
2022-09-26T21:30:32.091Z,7.40
2022-09-26T21:33:01.570Z,8.87
2022-09-26T21:35:32.093Z,8.00
2022-09-26T21:38:02.557Z,7.80
2022-09-26T21:40:35.920Z,8.17
2022-09-26T21:43:09.308Z,8.10
2022-09-26T21:45:37.934Z,9.40
2022-09-26T21:48:06.564Z,7.33
2022-09-26T21:50:35.501Z,9.63
2022-09-26T21:53:08.643Z,8.83
2022-09-26T21:55:44.448Z,8.90
2022-09-26T21:58:16.698Z,9.00
2022-09-26T22:00:45.395Z,9.80
2022-09-26T22:03:13.954Z,9.03
2022-09-26T22:05:42.579Z,8.93
2022-09-26T22:08:11.270Z,8.07
2022-09-26T22:10:41.749Z,9.03
2022-09-26T22:13:10.309Z,9.23
2022-09-26T22:15:38.959Z,11.13
2022-09-26T22:18:07.484Z,8.07
2022-09-26T22:20:36.027Z,8.70
2022-09-26T22:23:04.596Z,8.60
2022-09-26T22:25:33.221Z,8.53
2022-09-26T22:28:03.563Z,9.10
2022-09-26T22:30:32.270Z,9.87
2022-09-26T22:33:00.918Z,8.27
2022-09-26T22:35:29.479Z,10.63
2022-09-26T22:37:58.048Z,9.33
2022-09-26T22:40:26.799Z,10.07
2022-09-26T22:42:55.575Z,9.83
2022-09-26T22:45:25.639Z,10.90
2022-09-26T22:47:54.251Z,9.83
2022-09-26T22:50:22.788Z,9.80
2022-09-26T22:52:51.423Z,9.37
2022-09-26T22:55:19.964Z,8.60
2022-09-26T22:57:51.564Z,9.00
2022-09-26T23:00:20.221Z,10.37
2022-09-26T23:02:50.290Z,9.20
2022-09-26T23:05:18.961Z,10.03
2022-09-26T23:07:47.505Z,9.77
2022-09-26T23:10:16.140Z,8.30
2022-09-26T23:12:45.045Z,9.20
2022-09-26T23:15:14.545Z,8.07
2022-09-26T23:17:43.235Z,9.17
2022-09-26T23:20:13.288Z,8.20
2022-09-26T23:22:42.074Z,9.37
2022-09-26T23:25:10.892Z,8.83
2022-09-26T23:27:39.477Z,9.10
2022-09-26T23:30:09.383Z,8.23
2022-09-26T23:32:38.003Z,8.27
2022-09-26T23:35:07.427Z,8.67
2022-09-26T23:37:37.426Z,7.57
2022-09-26T23:40:06.871Z,7.87
2022-09-26T23:42:35.413Z,9.50
2022-09-26T23:45:04.177Z,8.33
2022-09-26T23:47:32.791Z,8.70
2022-09-26T23:50:01.473Z,9.17
2022-09-26T23:52:30.048Z,9.13
2022-09-26T23:55:00.027Z,9.33
2022-09-26T23:57:28.571Z,8.90
2022-09-26T23:59:57.177Z,9.60
